Time;durP1;ratioP1;P1;durP2;ratioP2;P2;SDS_P1;SDS_P2;PMS_P1;PMS_P2;Temp;Humidity;BMP_temperature;BMP_pressure;BME280_temperature;BME280_humidity;BME280_pressure;Samples;Min_cycle;Max_cycle;Signal;HPM_P1;HPM_P2
2022/01/01 00:01:34;;;;;;;;;;;13.30;99.90;;;;;;5080017;28;19938;-67
2022/01/01 00:04:00;;;;;;;;;;;13.40;99.90;;;;;;5085588;28;20406;-68
2022/01/01 00:06:25;;;;;;;;;;;13.40;99.90;;;;;;5078236;28;19930;-68
2022/01/01 00:08:51;;;;;;;;;;;13.40;99.90;;;;;;5076947;28;19916;-69
2022/01/01 00:11:16;;;;;;;;;;;13.40;99.90;;;;;;5077800;28;19915;-69
2022/01/01 00:13:41;;;;;;;;;;;13.30;99.90;;;;;;5074777;28;19923;-66
2022/01/01 00:16:10;;;;;;;;;;;13.30;99.90;;;;;;5089901;27;19969;-69
2022/01/01 00:18:36;;;;;;;;;;;13.30;99.90;;;;;;5098214;27;20416;-68
2022/01/01 00:21:01;;;;;;;;;;;13.30;99.90;;;;;;5107352;27;19919;-67
2022/01/01 00:23:27;;;;;;;;;;;13.30;99.90;;;;;;5093101;27;19920;-69
2022/01/01 00:25:52;;;;;;;;;;;13.30;99.90;;;;;;5099672;28;19916;-69
2022/01/01 00:28:18;;;;;;;;;;;13.40;99.90;;;;;;5097746;27;19987;-66
2022/01/01 00:30:43;;;;;;;;;;;13.40;99.90;;;;;;5096625;28;20337;-69
2022/01/01 00:33:09;;;;;;;;;;;13.40;99.90;;;;;;5096469;28;19923;-67
2022/01/01 00:35:34;;;;;;;;;;;13.30;99.90;;;;;;5076581;28;19947;-68
2022/01/01 00:37:59;;;;;;;;;;;13.40;99.90;;;;;;5102382;27;19919;-69
2022/01/01 00:40:25;;;;;;;;;;;13.40;99.90;;;;;;5095926;27;19919;-69
2022/01/01 00:42:50;;;;;;;;;;;13.40;99.90;;;;;;5096560;28;19927;-69
2022/01/01 00:45:16;;;;;;;;;;;13.40;99.90;;;;;;5096301;27;20026;-68
2022/01/01 00:47:42;;;;;;;;;;;13.40;99.90;;;;;;5099515;28;19959;-68
2022/01/01 00:50:08;;;;;;;;;;;13.40;99.90;;;;;;5099861;27;20432;-69
2022/01/01 00:52:33;;;;;;;;;;;13.50;99.90;;;;;;5092407;27;19927;-68
2022/01/01 00:54:59;;;;;;;;;;;13.40;99.90;;;;;;5098673;27;20295;-69
2022/01/01 00:57:25;;;;;;;;;;;13.40;99.90;;;;;;5093592;27;19995;-69
2022/01/01 00:59:51;;;;;;;;;;;13.40;99.90;;;;;;5077677;28;19959;-69
2022/01/01 01:02:16;;;;;;;;;;;13.40;99.90;;;;;;5100616;28;19943;-67
2022/01/01 01:04:42;;;;;;;;;;;13.40;99.90;;;;;;5098556;27;19919;-69
2022/01/01 01:07:08;;;;;;;;;;;13.30;99.90;;;;;;5093765;28;19998;-68
2022/01/01 01:09:33;;;;;;;;;;;13.40;99.90;;;;;;5095036;27;19919;-69
2022/01/01 01:11:59;;;;;;;;;;;13.40;99.90;;;;;;5098813;27;19930;-69
2022/01/01 01:14:27;;;;;;;;;;;13.40;99.90;;;;;;5097519;28;19942;-67
2022/01/01 01:16:53;;;;;;;;;;;13.40;99.90;;;;;;5094110;28;19938;-66
2022/01/01 01:19:18;;;;;;;;;;;13.40;99.90;;;;;;5095274;28;20657;-68
2022/01/01 01:21:44;;;;;;;;;;;13.40;99.90;;;;;;5097371;27;20546;-68
2022/01/01 01:24:11;;;;;;;;;;;13.40;99.90;;;;;;5095878;28;19928;-69
2022/01/01 01:26:36;;;;;;;;;;;13.40;99.90;;;;;;5093184;28;20001;-68
2022/01/01 01:29:03;;;;;;;;;;;13.40;99.90;;;;;;5095678;28;20327;-68
2022/01/01 01:31:30;;;;;;;;;;;13.30;99.90;;;;;;5097788;28;20367;-67
2022/01/01 01:33:56;;;;;;;;;;;13.40;99.90;;;;;;5099792;28;19920;-69
2022/01/01 01:36:21;;;;;;;;;;;13.40;99.90;;;;;;5093202;27;19916;-68
2022/01/01 01:38:46;;;;;;;;;;;13.30;99.90;;;;;;5098042;27;19926;-69
2022/01/01 01:41:12;;;;;;;;;;;13.40;99.90;;;;;;5095429;27;19923;-69
2022/01/01 01:43:37;;;;;;;;;;;13.40;99.90;;;;;;5103636;27;20623;-70
2022/01/01 01:46:05;;;;;;;;;;;13.40;99.90;;;;;;5107610;27;19916;-69
2022/01/01 01:48:31;;;;;;;;;;;13.40;99.90;;;;;;5084817;28;20011;-69
2022/01/01 01:50:57;;;;;;;;;;;13.40;99.90;;;;;;5088523;28;20544;-68
2022/01/01 01:53:22;;;;;;;;;;;13.50;99.90;;;;;;5095048;27;19924;-66
2022/01/01 01:55:48;;;;;;;;;;;13.50;99.90;;;;;;5098106;27;19930;-69
2022/01/01 01:58:14;;;;;;;;;;;13.50;99.90;;;;;;5107877;27;19923;-68
2022/01/01 02:03:11;;;;;;;;;;;13.40;99.90;;;;;;5104398;27;19927;-69
2022/01/01 02:05:37;;;;;;;;;;;13.50;99.90;;;;;;5106383;27;20542;-68
2022/01/01 02:08:03;;;;;;;;;;;13.50;99.90;;;;;;5089045;27;20014;-69
2022/01/01 02:10:30;;;;;;;;;;;13.50;99.90;;;;;;5107919;27;20702;-69
2022/01/01 02:12:57;;;;;;;;;;;13.60;99.90;;;;;;5094706;28;20011;-69
2022/01/01 02:15:37;;;;;;;;;;;13.50;99.90;;;;;;5098595;28;20589;-69
2022/01/01 02:18:03;;;;;;;;;;;13.60;99.90;;;;;;5096716;27;20382;-67
2022/01/01 02:20:28;;;;;;;;;;;13.60;99.90;;;;;;5100318;27;19917;-67
2022/01/01 02:22:58;;;;;;;;;;;13.50;99.90;;;;;;5101167;28;19920;-69
2022/01/01 02:25:24;;;;;;;;;;;13.50;99.90;;;;;;5100842;28;19962;-66
2022/01/01 02:27:49;;;;;;;;;;;13.50;99.90;;;;;;5093732;28;19948;-69
2022/01/01 02:30:15;;;;;;;;;;;13.60;99.90;;;;;;5095359;27;19920;-67
2022/01/01 02:32:41;;;;;;;;;;;13.50;99.90;;;;;;5100442;28;19969;-69
2022/01/01 02:35:08;;;;;;;;;;;13.60;99.90;;;;;;5095039;28;19916;-68
2022/01/01 02:37:37;;;;;;;;;;;13.60;99.90;;;;;;5104917;27;19977;-69
2022/01/01 02:40:02;;;;;;;;;;;13.60;99.90;;;;;;5101145;27;20006;-68
2022/01/01 02:42:28;;;;;;;;;;;13.70;99.90;;;;;;5093993;27;20141;-69
2022/01/01 02:44:54;;;;;;;;;;;13.60;99.90;;;;;;5097106;28;19920;-68
2022/01/01 02:47:20;;;;;;;;;;;13.50;99.90;;;;;;5093891;28;19916;-68
2022/01/01 02:49:45;;;;;;;;;;;13.50;99.90;;;;;;5103274;28;20354;-68
2022/01/01 02:52:11;;;;;;;;;;;13.50;99.90;;;;;;5101077;28;19981;-68
2022/01/01 02:54:36;;;;;;;;;;;13.50;99.90;;;;;;5097832;28;19951;-67
2022/01/01 02:57:02;;;;;;;;;;;13.60;99.90;;;;;;5099109;28;19930;-67
2022/01/01 02:59:28;;;;;;;;;;;13.60;99.90;;;;;;5091002;27;19920;-69
2022/01/01 03:01:53;;;;;;;;;;;13.70;99.90;;;;;;5099620;28;19926;-66
2022/01/01 03:04:19;;;;;;;;;;;13.70;99.90;;;;;;5095616;27;19984;-66
2022/01/01 03:06:52;;;;;;;;;;;13.70;99.90;;;;;;5100669;27;19922;-69
2022/01/01 03:09:17;;;;;;;;;;;13.70;99.90;;;;;;5079007;28;19919;-69
2022/01/01 03:11:43;;;;;;;;;;;13.70;99.90;;;;;;5085416;28;19972;-67
2022/01/01 03:14:10;;;;;;;;;;;13.70;99.90;;;;;;5102762;27;19916;-69
2022/01/01 03:16:36;;;;;;;;;;;13.60;99.90;;;;;;5109374;27;20320;-66
2022/01/01 03:19:01;;;;;;;;;;;13.70;99.90;;;;;;5101494;27;19923;-68
2022/01/01 03:21:27;;;;;;;;;;;13.70;99.90;;;;;;5099253;27;20002;-68
2022/01/01 03:23:52;;;;;;;;;;;13.70;99.90;;;;;;5097732;28;19990;-69
2022/01/01 03:26:18;;;;;;;;;;;13.70;99.90;;;;;;5099929;28;20355;-68
2022/01/01 03:28:43;;;;;;;;;;;13.60;99.90;;;;;;5105129;27;19927;-66
2022/01/01 03:31:09;;;;;;;;;;;13.70;99.90;;;;;;5094595;28;20464;-68
2022/01/01 03:33:34;;;;;;;;;;;13.60;99.90;;;;;;5084069;28;19918;-69
2022/01/01 03:36:00;;;;;;;;;;;13.50;99.90;;;;;;5099963;28;19950;-69
2022/01/01 03:38:25;;;;;;;;;;;13.60;99.90;;;;;;5101930;27;19942;-66
2022/01/01 03:40:50;;;;;;;;;;;13.50;99.90;;;;;;5103695;27;19951;-68
2022/01/01 03:43:16;;;;;;;;;;;13.40;99.90;;;;;;5095374;27;19969;-69
2022/01/01 03:45:41;;;;;;;;;;;13.40;99.90;;;;;;5101988;27;19919;-66
2022/01/01 03:48:07;;;;;;;;;;;13.20;99.90;;;;;;5084352;28;19963;-66
2022/01/01 03:50:33;;;;;;;;;;;13.40;99.90;;;;;;5101052;27;20357;-68
2022/01/01 03:52:58;;;;;;;;;;;13.30;99.90;;;;;;5098094;27;20382;-69
2022/01/01 03:55:24;;;;;;;;;;;13.30;99.90;;;;;;5099782;27;20437;-68
2022/01/01 03:57:49;;;;;;;;;;;13.20;99.90;;;;;;5104321;27;19961;-69
2022/01/01 04:00:15;;;;;;;;;;;13.10;99.90;;;;;;5104491;27;20015;-69
2022/01/01 04:02:41;;;;;;;;;;;13.20;99.90;;;;;;5100684;27;19920;-68
2022/01/01 04:05:07;;;;;;;;;;;13.30;99.90;;;;;;5096527;27;19922;-68
2022/01/01 04:07:32;;;;;;;;;;;13.30;99.90;;;;;;5099380;27;19916;-69
2022/01/01 04:09:58;;;;;;;;;;;13.50;99.90;;;;;;5095274;28;19923;-69
2022/01/01 04:12:24;;;;;;;;;;;13.40;99.90;;;;;;5097678;27;19947;-68
2022/01/01 04:14:50;;;;;;;;;;;13.40;99.90;;;;;;5095301;27;20014;-69
2022/01/01 04:17:16;;;;;;;;;;;13.40;99.90;;;;;;5100492;27;20050;-68
2022/01/01 04:19:41;;;;;;;;;;;13.40;99.90;;;;;;5103881;28;19999;-69
2022/01/01 04:22:10;;;;;;;;;;;13.30;99.90;;;;;;5103904;27;19935;-68
2022/01/01 04:24:37;;;;;;;;;;;13.40;99.90;;;;;;5099384;27;19928;-69
2022/01/01 04:27:03;;;;;;;;;;;13.40;99.90;;;;;;5100746;28;20567;-66
2022/01/01 04:29:28;;;;;;;;;;;13.20;99.90;;;;;;5092913;28;19950;-69
2022/01/01 04:31:54;;;;;;;;;;;13.30;99.90;;;;;;5100959;28;20005;-68
2022/01/01 04:34:20;;;;;;;;;;;13.40;99.90;;;;;;5096438;28;20030;-67
2022/01/01 04:36:56;;;;;;;;;;;13.40;99.90;;;;;;5093533;28;20034;-69
2022/01/01 04:39:21;;;;;;;;;;;13.50;99.90;;;;;;5095058;28;19924;-68
2022/01/01 04:41:47;;;;;;;;;;;13.40;99.90;;;;;;5094511;28;19927;-66
2022/01/01 04:44:12;;;;;;;;;;;13.40;99.90;;;;;;5101290;28;20039;-69
2022/01/01 04:46:38;;;;;;;;;;;13.40;99.90;;;;;;5076388;28;19931;-69
2022/01/01 04:49:03;;;;;;;;;;;13.40;99.90;;;;;;5100656;28;19920;-67
2022/01/01 04:51:29;;;;;;;;;;;13.40;99.90;;;;;;5101054;28;19927;-68
2022/01/01 04:53:59;;;;;;;;;;;13.40;99.90;;;;;;5097224;27;19924;-69
2022/01/01 04:56:25;;;;;;;;;;;13.50;99.90;;;;;;5096204;28;20428;-69
2022/01/01 04:58:51;;;;;;;;;;;13.40;99.90;;;;;;5085163;28;19919;-69
2022/01/01 05:01:18;;;;;;;;;;;13.40;99.90;;;;;;5096945;28;19923;-69
2022/01/01 05:03:44;;;;;;;;;;;13.40;99.90;;;;;;5096944;28;19924;-68
2022/01/01 05:06:10;;;;;;;;;;;13.40;99.90;;;;;;5100797;28;20488;-66
2022/01/01 05:08:35;;;;;;;;;;;13.30;99.90;;;;;;5100138;28;19999;-66
2022/01/01 05:11:01;;;;;;;;;;;13.40;99.90;;;;;;5102418;28;19922;-69
2022/01/01 05:13:26;;;;;;;;;;;13.40;99.90;;;;;;5105781;28;19955;-68
2022/01/01 05:15:54;;;;;;;;;;;13.40;99.90;;;;;;5107347;27;19995;-69
2022/01/01 05:18:20;;;;;;;;;;;13.20;99.90;;;;;;5110148;27;19919;-69
2022/01/01 05:20:46;;;;;;;;;;;13.30;99.90;;;;;;5103807;27;20043;-67
2022/01/01 05:23:11;;;;;;;;;;;13.40;99.90;;;;;;5109493;27;19919;-66
2022/01/01 05:25:36;;;;;;;;;;;13.30;99.90;;;;;;5103763;27;20509;-69
2022/01/01 05:28:02;;;;;;;;;;;13.30;99.90;;;;;;5102589;27;19972;-66
2022/01/01 05:30:27;;;;;;;;;;;13.70;99.90;;;;;;5102577;28;19967;-69
2022/01/01 05:32:53;;;;;;;;;;;13.40;99.90;;;;;;5103278;28;20148;-69
2022/01/01 05:35:18;;;;;;;;;;;13.30;99.90;;;;;;5101652;28;20020;-68
2022/01/01 05:37:44;;;;;;;;;;;13.30;99.90;;;;;;5104126;27;19926;-68
2022/01/01 05:40:10;;;;;;;;;;;13.30;99.90;;;;;;5083258;28;20014;-67
2022/01/01 05:42:35;;;;;;;;;;;13.20;99.90;;;;;;5096402;28;20545;-69
2022/01/01 05:45:01;;;;;;;;;;;13.20;99.90;;;;;;5093597;28;19916;-68
2022/01/01 05:47:27;;;;;;;;;;;13.10;99.90;;;;;;5096725;28;19947;-69
2022/01/01 05:49:52;;;;;;;;;;;13.10;99.90;;;;;;5103868;27;20286;-67
2022/01/01 05:52:18;;;;;;;;;;;13.10;99.90;;;;;;5099638;27;19915;-68
2022/01/01 05:54:43;;;;;;;;;;;13.00;99.90;;;;;;5093110;27;19969;-68
2022/01/01 05:57:09;;;;;;;;;;;13.10;99.90;;;;;;5100831;28;19915;-68
2022/01/01 05:59:34;;;;;;;;;;;13.10;99.90;;;;;;5104093;27;19926;-68
2022/01/01 06:02:00;;;;;;;;;;;13.10;99.90;;;;;;5102901;28;19979;-66
2022/01/01 06:04:25;;;;;;;;;;;13.10;99.90;;;;;;5080721;28;20806;-68
2022/01/01 06:06:51;;;;;;;;;;;13.20;99.90;;;;;;5103376;28;20409;-67
2022/01/01 06:09:16;;;;;;;;;;;13.20;99.90;;;;;;5097975;28;20582;-69
2022/01/01 06:11:42;;;;;;;;;;;13.30;99.90;;;;;;5102444;27;20513;-69
2022/01/01 06:14:07;;;;;;;;;;;13.30;99.90;;;;;;5101147;27;19963;-66
2022/01/01 06:16:33;;;;;;;;;;;13.30;99.90;;;;;;5103491;27;19927;-67
2022/01/01 06:18:58;;;;;;;;;;;13.20;99.90;;;;;;5103217;28;20358;-69
2022/01/01 06:21:24;;;;;;;;;;;13.20;99.90;;;;;;5102007;28;19931;-68
2022/01/01 06:23:49;;;;;;;;;;;13.20;99.90;;;;;;5100587;27;20340;-69
2022/01/01 06:26:15;;;;;;;;;;;13.10;99.90;;;;;;5104265;27;19916;-66
2022/01/01 06:28:41;;;;;;;;;;;13.20;99.90;;;;;;5097304;27;19916;-67
2022/01/01 06:31:07;;;;;;;;;;;13.20;99.90;;;;;;5102492;28;20442;-69
2022/01/01 06:33:32;;;;;;;;;;;13.20;99.90;;;;;;5103015;28;19919;-68
2022/01/01 06:35:58;;;;;;;;;;;13.20;99.90;;;;;;5098207;27;19916;-69
2022/01/01 06:38:23;;;;;;;;;;;13.20;99.90;;;;;;5106354;27;19935;-67
2022/01/01 06:40:49;;;;;;;;;;;13.30;99.90;;;;;;5103588;28;20343;-68
2022/01/01 06:43:16;;;;;;;;;;;13.40;99.90;;;;;;5091100;27;20013;-69
2022/01/01 06:45:41;;;;;;;;;;;13.40;99.90;;;;;;5089064;27;20086;-67
2022/01/01 06:48:07;;;;;;;;;;;13.40;99.90;;;;;;5100555;28;19934;-69
2022/01/01 06:50:32;;;;;;;;;;;13.20;99.90;;;;;;5099922;28;19920;-69
2022/01/01 06:52:58;;;;;;;;;;;13.20;99.90;;;;;;5097626;27;19943;-68
2022/01/01 06:55:23;;;;;;;;;;;13.20;99.90;;;;;;5103049;27;19922;-68
2022/01/01 06:57:49;;;;;;;;;;;13.20;99.90;;;;;;5100838;27;20005;-69
2022/01/01 07:00:15;;;;;;;;;;;13.10;99.90;;;;;;5102988;27;19961;-69
2022/01/01 07:02:45;;;;;;;;;;;13.20;99.90;;;;;;5105234;27;19923;-66
2022/01/01 07:05:11;;;;;;;;;;;13.20;99.90;;;;;;5099086;27;19915;-69
2022/01/01 07:07:36;;;;;;;;;;;13.30;99.90;;;;;;5096605;27;20260;-69
2022/01/01 07:10:05;;;;;;;;;;;13.30;99.90;;;;;;5097335;27;19920;-67
2022/01/01 07:12:31;;;;;;;;;;;13.20;99.90;;;;;;5100376;27;20007;-68
2022/01/01 07:14:56;;;;;;;;;;;13.10;99.90;;;;;;5108044;27;20030;-66
2022/01/01 07:17:22;;;;;;;;;;;13.00;99.90;;;;;;5095246;28;19924;-67
2022/01/01 07:19:48;;;;;;;;;;;13.00;99.90;;;;;;5096238;28;19988;-69
2022/01/01 07:22:13;;;;;;;;;;;13.00;99.90;;;;;;5082617;28;19999;-68
2022/01/01 07:24:39;;;;;;;;;;;13.10;99.90;;;;;;5099032;27;20279;-69
2022/01/01 07:27:05;;;;;;;;;;;13.10;99.90;;;;;;5083859;28;20298;-68
2022/01/01 07:29:31;;;;;;;;;;;13.20;99.90;;;;;;5090910;28;20139;-69
2022/01/01 07:31:56;;;;;;;;;;;13.20;99.90;;;;;;5100438;27;20336;-68
2022/01/01 07:34:22;;;;;;;;;;;13.00;99.90;;;;;;5099036;27;20014;-69
2022/01/01 07:36:47;;;;;;;;;;;13.20;99.90;;;;;;5101084;27;19916;-68
2022/01/01 07:39:13;;;;;;;;;;;13.20;99.90;;;;;;5091756;28;20279;-69
2022/01/01 07:41:39;;;;;;;;;;;13.10;99.90;;;;;;5101971;27;19924;-67
2022/01/01 07:44:05;;;;;;;;;;;13.10;99.90;;;;;;5101285;27;19926;-66
2022/01/01 07:46:30;;;;;;;;;;;13.10;99.90;;;;;;5098325;27;19923;-69
2022/01/01 07:48:56;;;;;;;;;;;13.00;99.90;;;;;;5100670;27;19916;-69
2022/01/01 07:51:21;;;;;;;;;;;13.20;99.90;;;;;;5084040;28;20000;-69
2022/01/01 07:53:47;;;;;;;;;;;13.30;99.90;;;;;;5100541;27;19919;-68
2022/01/01 07:56:12;;;;;;;;;;;13.30;99.90;;;;;;5104399;27;19916;-67
2022/01/01 07:58:38;;;;;;;;;;;13.30;99.90;;;;;;5102315;27;19924;-68
2022/01/01 08:01:03;;;;;;;;;;;13.20;99.90;;;;;;5099033;27;19981;-66
2022/01/01 08:03:29;;;;;;;;;;;13.30;99.90;;;;;;5083622;28;20541;-68
2022/01/01 08:05:55;;;;;;;;;;;13.40;99.90;;;;;;5096427;27;19919;-70
2022/01/01 08:08:21;;;;;;;;;;;13.30;99.90;;;;;;5105523;27;20695;-67
2022/01/01 08:10:46;;;;;;;;;;;13.30;99.90;;;;;;5100634;28;19976;-69
2022/01/01 08:13:12;;;;;;;;;;;13.20;99.90;;;;;;5099836;27;19923;-69
2022/01/01 08:15:37;;;;;;;;;;;13.20;99.90;;;;;;5103225;27;19920;-67
2022/01/01 08:18:03;;;;;;;;;;;13.30;99.90;;;;;;5109191;27;19920;-69
2022/01/01 08:20:29;;;;;;;;;;;13.20;99.90;;;;;;5083373;28;20278;-69
2022/01/01 08:22:54;;;;;;;;;;;13.30;99.90;;;;;;5102340;27;20364;-66
2022/01/01 08:25:21;;;;;;;;;;;13.30;99.90;;;;;;5100070;28;19916;-68
2022/01/01 08:27:47;;;;;;;;;;;13.40;99.90;;;;;;5100877;28;19924;-68
2022/01/01 08:30:14;;;;;;;;;;;13.50;99.90;;;;;;5097273;28;20014;-67
2022/01/01 08:32:40;;;;;;;;;;;13.40;99.90;;;;;;5100971;28;20323;-69
2022/01/01 08:35:06;;;;;;;;;;;13.20;99.90;;;;;;5109047;27;20018;-68
2022/01/01 08:37:31;;;;;;;;;;;13.20;99.90;;;;;;5079983;28;20311;-69
2022/01/01 08:39:57;;;;;;;;;;;13.20;99.90;;;;;;5106774;28;19919;-69
2022/01/01 08:42:24;;;;;;;;;;;13.10;99.90;;;;;;5082309;28;19927;-69
2022/01/01 08:44:50;;;;;;;;;;;13.10;99.90;;;;;;5084199;28;19934;-69
2022/01/01 08:47:16;;;;;;;;;;;13.10;99.90;;;;;;5096184;27;19919;-69
2022/01/01 08:49:41;;;;;;;;;;;13.20;99.90;;;;;;5095686;28;20003;-69
2022/01/01 08:52:10;;;;;;;;;;;13.10;99.90;;;;;;5103383;27;19916;-69
2022/01/01 08:54:35;;;;;;;;;;;13.20;99.90;;;;;;5105357;27;19920;-68
2022/01/01 08:57:01;;;;;;;;;;;13.20;99.90;;;;;;5101539;27;19916;-69
2022/01/01 08:59:26;;;;;;;;;;;13.20;99.90;;;;;;5099448;27;19916;-69
2022/01/01 09:01:52;;;;;;;;;;;13.30;99.90;;;;;;5100598;28;20508;-69
2022/01/01 09:04:17;;;;;;;;;;;13.20;99.90;;;;;;5103215;27;19927;-68
2022/01/01 09:06:43;;;;;;;;;;;13.20;99.90;;;;;;5078716;28;21145;-69
2022/01/01 09:09:10;;;;;;;;;;;13.30;99.90;;;;;;5103719;27;19922;-67
2022/01/01 09:11:35;;;;;;;;;;;13.40;99.90;;;;;;5089661;27;21599;-69
2022/01/01 09:14:01;;;;;;;;;;;13.40;99.90;;;;;;5087294;27;20003;-68
2022/01/01 09:16:29;;;;;;;;;;;13.30;99.90;;;;;;5107809;27;19955;-68
2022/01/01 09:18:55;;;;;;;;;;;13.30;99.90;;;;;;5099370;27;20623;-68
2022/01/01 09:21:21;;;;;;;;;;;13.20;99.90;;;;;;5103012;28;19951;-67
2022/01/01 09:23:47;;;;;;;;;;;13.20;99.90;;;;;;5098454;27;19960;-68
2022/01/01 09:26:12;;;;;;;;;;;13.20;99.90;;;;;;5110827;27;20414;-68
2022/01/01 09:28:38;;;;;;;;;;;13.30;99.90;;;;;;5100235;28;19920;-67
2022/01/01 09:31:04;;;;;;;;;;;13.30;99.90;;;;;;5103713;27;20267;-66
2022/01/01 09:33:31;;;;;;;;;;;13.30;99.90;;;;;;5102117;27;19920;-69
2022/01/01 09:35:57;;;;;;;;;;;13.30;99.90;;;;;;5086533;28;19920;-68
2022/01/01 09:38:23;;;;;;;;;;;13.30;99.90;;;;;;5102267;27;19993;-67
2022/01/01 09:40:51;;;;;;;;;;;13.40;99.90;;;;;;5104601;27;19920;-67
2022/01/01 09:43:18;;;;;;;;;;;13.40;99.90;;;;;;5105816;27;19928;-67
2022/01/01 09:45:44;;;;;;;;;;;13.40;99.90;;;;;;5098133;27;19920;-68
2022/01/01 09:48:09;;;;;;;;;;;13.40;99.90;;;;;;5094207;27;20307;-68
2022/01/01 09:50:35;;;;;;;;;;;13.40;99.90;;;;;;5105982;27;19926;-69
2022/01/01 09:53:01;;;;;;;;;;;13.50;99.90;;;;;;5101764;27;20361;-66
2022/01/01 09:55:27;;;;;;;;;;;13.50;99.90;;;;;;5100477;27;19916;-66
2022/01/01 09:57:52;;;;;;;;;;;13.60;99.90;;;;;;5085344;28;19916;-67
2022/01/01 10:00:18;;;;;;;;;;;13.50;99.90;;;;;;5101959;27;19915;-67
2022/01/01 10:02:43;;;;;;;;;;;13.60;99.90;;;;;;5098034;27;19980;-67
2022/01/01 10:05:09;;;;;;;;;;;13.60;99.90;;;;;;5098570;28;20240;-67
2022/01/01 10:07:34;;;;;;;;;;;13.60;99.90;;;;;;5100159;28;19924;-68
2022/01/01 10:10:18;;;;;;;;;;;13.70;99.90;;;;;;5082330;28;19927;-69
2022/01/01 10:12:43;;;;;;;;;;;13.70;99.90;;;;;;5107695;27;19926;-68
2022/01/01 10:15:10;;;;;;;;;;;13.70;99.90;;;;;;5082183;28;20290;-68
2022/01/01 10:17:36;;;;;;;;;;;13.70;99.90;;;;;;5101098;27;20424;-67
2022/01/01 10:20:03;;;;;;;;;;;13.70;99.90;;;;;;5103922;27;19976;-68
2022/01/01 10:22:29;;;;;;;;;;;13.70;99.90;;;;;;5105195;27;19920;-68
2022/01/01 10:28:10;;;;;;;;;;;13.80;99.90;;;;;;5085496;28;20312;-67
2022/01/01 10:30:36;;;;;;;;;;;13.80;99.90;;;;;;5097797;28;19920;-67
2022/01/01 10:33:09;;;;;;;;;;;13.90;99.90;;;;;;5079993;28;20006;-68
2022/01/01 10:35:36;;;;;;;;;;;13.90;99.90;;;;;;5102422;28;20373;-68
2022/01/01 10:38:12;;;;;;;;;;;13.90;99.90;;;;;;5079496;27;19923;-68
2022/01/01 10:40:38;;;;;;;;;;;13.80;99.90;;;;;;5106844;27;19968;-68
2022/01/01 10:43:03;;;;;;;;;;;13.80;99.90;;;;;;5097585;27;20334;-68
2022/01/01 10:45:37;;;;;;;;;;;13.90;99.90;;;;;;5105402;27;20315;-68
2022/01/01 10:48:40;;;;;;;;;;;13.90;99.90;;;;;;5089710;27;20246;-66
2022/01/01 10:51:09;;;;;;;;;;;14.00;99.90;;;;;;5097963;27;19915;-68
2022/01/01 10:53:35;;;;;;;;;;;14.10;99.90;;;;;;5084564;28;20357;-68
2022/01/01 10:56:02;;;;;;;;;;;14.10;99.90;;;;;;5098048;28;20014;-67
2022/01/01 10:58:29;;;;;;;;;;;14.00;99.90;;;;;;5095364;27;20343;-68
2022/01/01 11:01:03;;;;;;;;;;;14.10;99.90;;;;;;5099938;27;19969;-68
2022/01/01 11:03:34;;;;;;;;;;;14.10;99.90;;;;;;5082210;28;20025;-67
2022/01/01 11:06:11;;;;;;;;;;;14.10;99.90;;;;;;5090825;27;19920;-68
2022/01/01 11:08:37;;;;;;;;;;;14.10;99.90;;;;;;5089068;27;19920;-68
2022/01/01 11:11:03;;;;;;;;;;;14.10;99.90;;;;;;5096185;27;20326;-67
2022/01/01 11:13:32;;;;;;;;;;;14.20;99.90;;;;;;5096907;28;19916;-68
2022/01/01 11:15:58;;;;;;;;;;;14.30;99.90;;;;;;5103607;27;20267;-68
2022/01/01 11:18:24;;;;;;;;;;;14.30;99.90;;;;;;5095454;28;20619;-68
2022/01/01 11:20:50;;;;;;;;;;;14.30;99.90;;;;;;5093859;27;19920;-68
2022/01/01 11:23:16;;;;;;;;;;;14.40;99.90;;;;;;5083570;28;19930;-67
2022/01/01 11:25:41;;;;;;;;;;;14.40;99.90;;;;;;5080649;28;19916;-67
2022/01/01 11:28:09;;;;;;;;;;;14.40;99.90;;;;;;5083315;28;19966;-68
2022/01/01 11:30:38;;;;;;;;;;;14.50;99.90;;;;;;5065358;28;19923;-67
2022/01/01 11:33:06;;;;;;;;;;;14.50;99.90;;;;;;5066647;28;19919;-67
2022/01/01 11:35:33;;;;;;;;;;;14.50;99.90;;;;;;5080599;28;20422;-67
2022/01/01 11:38:01;;;;;;;;;;;14.60;99.90;;;;;;5078513;28;20367;-67
2022/01/01 11:40:28;;;;;;;;;;;14.60;99.90;;;;;;5083723;28;20658;-67
2022/01/01 11:42:53;;;;;;;;;;;14.60;99.90;;;;;;5080969;28;19920;-67
2022/01/01 11:45:37;;;;;;;;;;;14.60;99.90;;;;;;5081006;27;19916;-67
2022/01/01 11:48:23;;;;;;;;;;;14.60;99.90;;;;;;5078471;27;19924;-67
2022/01/01 11:50:48;;;;;;;;;;;14.60;99.90;;;;;;5073616;28;20950;-67
2022/01/01 11:53:27;;;;;;;;;;;14.60;99.90;;;;;;5108899;27;19954;-67
2022/01/01 11:56:10;;;;;;;;;;;14.60;99.90;;;;;;5101142;28;20575;-68
2022/01/01 11:58:53;;;;;;;;;;;14.60;99.90;;;;;;5097498;27;19919;-67
2022/01/01 12:01:19;;;;;;;;;;;14.60;99.90;;;;;;5088891;27;20386;-67
2022/01/01 12:03:52;;;;;;;;;;;14.60;99.90;;;;;;5088181;28;19919;-68
2022/01/01 12:06:18;;;;;;;;;;;14.70;99.90;;;;;;5099632;28;20556;-67
2022/01/01 12:08:46;;;;;;;;;;;14.70;99.90;;;;;;5099913;27;19967;-67
2022/01/01 12:11:31;;;;;;;;;;;14.80;99.90;;;;;;5104833;27;20396;-67
2022/01/01 12:13:57;;;;;;;;;;;14.70;99.90;;;;;;5099140;27;20124;-66
2022/01/01 12:16:23;;;;;;;;;;;14.70;99.90;;;;;;5080609;28;20550;-68
2022/01/01 12:18:48;;;;;;;;;;;14.80;99.90;;;;;;5102862;27;19927;-67
2022/01/01 12:21:21;;;;;;;;;;;14.80;99.90;;;;;;5079480;28;19972;-68
2022/01/01 12:23:54;;;;;;;;;;;14.80;99.90;;;;;;5104206;27;20150;-66
2022/01/01 12:26:29;;;;;;;;;;;14.80;99.90;;;;;;5102284;27;19916;-67
2022/01/01 12:29:00;;;;;;;;;;;14.80;99.90;;;;;;5103655;27;20280;-67
2022/01/01 12:31:25;;;;;;;;;;;14.80;99.90;;;;;;5102146;27;20424;-68
2022/01/01 12:33:52;;;;;;;;;;;14.80;99.90;;;;;;5096365;27;19912;-67
2022/01/01 12:36:19;;;;;;;;;;;14.80;99.90;;;;;;5104287;27;19919;-67
2022/01/01 12:38:48;;;;;;;;;;;14.80;99.90;;;;;;5089918;28;20538;-67
2022/01/01 12:41:21;;;;;;;;;;;14.90;99.90;;;;;;5098803;28;19912;-67
2022/01/01 12:43:46;;;;;;;;;;;14.90;99.90;;;;;;5096466;28;19924;-68
2022/01/01 12:46:13;;;;;;;;;;;14.80;99.90;;;;;;5092264;28;19932;-68
2022/01/01 12:48:38;;;;;;;;;;;14.80;99.90;;;;;;5093991;28;19916;-68
2022/01/01 12:51:08;;;;;;;;;;;14.80;99.90;;;;;;5099611;28;19919;-67
2022/01/01 12:53:38;;;;;;;;;;;14.80;99.90;;;;;;5081089;28;19915;-67
2022/01/01 12:56:05;;;;;;;;;;;14.90;99.90;;;;;;5096111;28;19919;-67
2022/01/01 12:58:34;;;;;;;;;;;14.90;99.90;;;;;;5106772;28;19912;-67
2022/01/01 13:01:26;;;;;;;;;;;14.80;99.90;;;;;;5099182;28;20384;-67
2022/01/01 13:03:57;;;;;;;;;;;14.80;99.90;;;;;;5102419;28;19919;-67
2022/01/01 13:06:27;;;;;;;;;;;14.80;99.90;;;;;;5086808;28;19977;-68
2022/01/01 13:08:53;;;;;;;;;;;14.80;99.90;;;;;;5079781;28;19916;-68
2022/01/01 13:11:18;;;;;;;;;;;14.80;99.90;;;;;;5096656;28;19916;-67
2022/01/01 13:13:44;;;;;;;;;;;14.80;99.90;;;;;;5107220;28;19922;-67
2022/01/01 13:16:10;;;;;;;;;;;14.70;99.90;;;;;;5096072;28;19923;-66
2022/01/01 13:18:35;;;;;;;;;;;14.70;99.90;;;;;;5099199;28;19970;-67
2022/01/01 13:21:01;;;;;;;;;;;14.70;99.90;;;;;;5099562;28;19989;-68
2022/01/01 13:23:27;;;;;;;;;;;14.70;99.90;;;;;;5079608;28;19919;-67
2022/01/01 13:25:53;;;;;;;;;;;14.60;99.90;;;;;;5095222;28;20112;-68
2022/01/01 13:28:22;;;;;;;;;;;14.70;99.90;;;;;;5100901;28;20311;-67
2022/01/01 13:30:47;;;;;;;;;;;14.60;99.90;;;;;;5103945;28;19915;-67
2022/01/01 13:33:13;;;;;;;;;;;14.60;99.90;;;;;;5098529;28;20436;-67
2022/01/01 13:35:45;;;;;;;;;;;14.70;99.90;;;;;;5089798;28;19919;-67
2022/01/01 13:38:14;;;;;;;;;;;14.70;99.90;;;;;;5084220;28;20338;-66
2022/01/01 13:40:39;;;;;;;;;;;14.70;99.90;;;;;;5102271;27;20398;-66
2022/01/01 13:43:08;;;;;;;;;;;14.70;99.90;;;;;;5100838;27;19997;-68
2022/01/01 13:45:34;;;;;;;;;;;14.70;99.90;;;;;;5108872;27;19920;-67
2022/01/01 13:48:06;;;;;;;;;;;14.60;99.90;;;;;;5101750;27;20030;-67
2022/01/01 13:50:43;;;;;;;;;;;14.50;99.90;;;;;;5080060;27;19919;-67
2022/01/01 13:53:10;;;;;;;;;;;14.50;99.90;;;;;;5099457;27;19973;-66
2022/01/01 13:55:37;;;;;;;;;;;14.40;99.90;;;;;;5103736;27;20352;-66
2022/01/01 13:58:03;;;;;;;;;;;14.40;99.90;;;;;;5103636;27;19946;-67
2022/01/01 14:00:29;;;;;;;;;;;14.40;99.90;;;;;;5100983;27;19931;-68
2022/01/01 14:02:56;;;;;;;;;;;14.50;99.90;;;;;;5096210;27;19959;-67
2022/01/01 14:05:23;;;;;;;;;;;14.40;99.90;;;;;;5092677;28;19980;-68
2022/01/01 14:07:48;;;;;;;;;;;14.40;99.90;;;;;;5101329;27;20364;-67
2022/01/01 14:10:15;;;;;;;;;;;14.30;99.90;;;;;;5095561;27;19981;-67
2022/01/01 14:12:42;;;;;;;;;;;14.40;99.90;;;;;;5100628;27;19916;-68
2022/01/01 14:15:10;;;;;;;;;;;14.30;99.90;;;;;;5103932;27;19972;-68
2022/01/01 14:18:06;;;;;;;;;;;14.30;99.90;;;;;;5101077;27;19926;-67
2022/01/01 14:20:35;;;;;;;;;;;14.30;99.90;;;;;;5065595;28;20286;-67